createdAt,value
2023-02-11T00:01:27.682Z,6.01
2023-02-11T00:03:54.746Z,6.01
2023-02-11T00:06:21.789Z,6.03
2023-02-11T00:08:48.687Z,5.99
2023-02-11T00:11:18.379Z,5.97
2023-02-11T00:13:46.216Z,5.99
2023-02-11T00:16:16.496Z,6.03
2023-02-11T00:18:43.254Z,6.02
2023-02-11T00:21:13.124Z,6.08
2023-02-11T00:23:40.164Z,6.10
2023-02-11T00:26:34.601Z,6.12
2023-02-11T00:29:01.902Z,6.14
2023-02-11T00:31:29.306Z,6.11
2023-02-11T00:33:56.252Z,6.12
2023-02-11T00:36:28.257Z,6.14
2023-02-11T00:38:58.814Z,6.15
2023-02-11T00:41:26.161Z,6.19
2023-02-11T00:43:53.392Z,6.20
2023-02-11T00:46:20.694Z,6.21
2023-02-11T00:48:47.683Z,6.22
2023-02-11T00:51:14.385Z,6.28
2023-02-11T00:53:41.161Z,6.25
2023-02-11T00:56:08.155Z,6.31
2023-02-11T00:58:35.005Z,6.26
2023-02-11T01:01:01.811Z,6.30
2023-02-11T01:03:28.603Z,6.31
2023-02-11T01:05:55.552Z,6.33
2023-02-11T01:08:22.493Z,6.33
2023-02-11T01:11:00.704Z,6.36
2023-02-11T01:13:29.314Z,6.37
2023-02-11T01:15:56.546Z,6.38
2023-02-11T01:18:23.889Z,6.47
2023-02-11T01:20:52.283Z,6.48
2023-02-11T01:23:19.381Z,6.49
2023-02-11T01:25:46.533Z,6.49
2023-02-11T01:28:18.805Z,6.48
2023-02-11T01:30:46.044Z,6.50
2023-02-11T01:33:12.864Z,6.55
2023-02-11T01:35:40.903Z,6.55
2023-02-11T01:38:13.956Z,6.48
2023-02-11T01:40:40.846Z,6.56
2023-02-11T01:43:07.673Z,6.53
2023-02-11T01:45:47.088Z,6.57
2023-02-11T01:48:18.248Z,6.57
2023-02-11T01:50:48.284Z,6.55
2023-02-11T01:53:34.517Z,6.58
2023-02-11T01:56:20.390Z,6.62
2023-02-11T01:58:49.027Z,6.59
2023-02-11T02:01:20.571Z,6.60
2023-02-11T02:03:48.511Z,6.60
2023-02-11T02:06:19.909Z,6.60
2023-02-11T02:08:58.779Z,6.64
2023-02-11T02:11:26.317Z,6.64
2023-02-11T02:13:53.049Z,6.65
2023-02-11T02:16:22.637Z,6.69
2023-02-11T02:19:15.053Z,6.65
2023-02-11T02:22:14.354Z,6.66
2023-02-11T02:25:16.922Z,6.70
2023-02-11T02:27:54.070Z,6.67
2023-02-11T02:30:48.241Z,6.71
2023-02-11T02:33:37.872Z,6.74
2023-02-11T02:36:56.066Z,6.72
2023-02-11T02:39:29.072Z,6.80
2023-02-11T02:41:56.860Z,6.76
2023-02-11T02:44:24.664Z,6.79
2023-02-11T02:46:51.572Z,6.81
2023-02-11T02:49:18.554Z,6.85
2023-02-11T02:52:36.103Z,6.89
2023-02-11T02:55:27.212Z,6.93
2023-02-11T02:58:29.015Z,7.03
2023-02-11T03:01:10.859Z,7.02
2023-02-11T03:03:49.744Z,7.09
2023-02-11T03:06:30.230Z,7.13
2023-02-11T03:09:04.242Z,7.13
2023-02-11T03:11:31.507Z,7.19
2023-02-11T03:14:03.153Z,7.17
2023-02-11T03:16:38.556Z,7.26
2023-02-11T03:19:18.070Z,7.31
2023-02-11T03:21:46.989Z,7.33
2023-02-11T03:24:28.208Z,7.35
2023-02-11T03:26:57.803Z,7.36
2023-02-11T03:29:40.881Z,7.38
2023-02-11T03:32:19.196Z,7.40
2023-02-11T03:34:56.972Z,7.41
2023-02-11T03:37:43.627Z,7.45
2023-02-11T03:40:17.543Z,7.44
2023-02-11T03:42:48.805Z,7.45
2023-02-11T03:45:19.809Z,7.47
2023-02-11T03:47:51.043Z,7.47
2023-02-11T03:50:18.890Z,7.50
2023-02-11T03:52:49.154Z,7.55
2023-02-11T03:55:20.859Z,7.55
2023-02-11T03:57:48.381Z,7.54
2023-02-11T04:00:15.701Z,7.52
2023-02-11T04:02:43.522Z,7.48
2023-02-11T04:05:13.651Z,7.57
2023-02-11T04:07:40.340Z,7.56
2023-02-11T04:10:08.380Z,7.56
2023-02-11T04:12:35.011Z,7.55
2023-02-11T04:15:01.713Z,7.56
2023-02-11T04:17:28.397Z,7.56
2023-02-11T04:19:55.155Z,7.59
2023-02-11T04:22:21.874Z,7.58
2023-02-11T04:24:48.585Z,7.58
2023-02-11T04:27:15.545Z,7.59
2023-02-11T04:29:42.280Z,7.59
2023-02-11T04:32:10.693Z,7.62
2023-02-11T04:34:37.467Z,7.59
2023-02-11T04:37:04.322Z,7.60
2023-02-11T04:39:33.506Z,7.61
2023-02-11T04:42:00.131Z,7.62
2023-02-11T04:44:26.883Z,7.62
2023-02-11T04:46:53.819Z,7.62
2023-02-11T04:49:20.536Z,7.58
2023-02-11T04:51:49.368Z,7.65
2023-02-11T04:54:16.642Z,7.66
2023-02-11T04:56:43.387Z,7.62
2023-02-11T04:59:10.178Z,7.57
2023-02-11T05:01:36.882Z,7.61
2023-02-11T05:04:04.111Z,7.66
2023-02-11T05:06:30.830Z,7.63
2023-02-11T05:08:57.603Z,7.67
2023-02-11T05:11:25.715Z,7.69
2023-02-11T05:13:53.021Z,7.70
2023-02-11T05:16:19.844Z,7.74
2023-02-11T05:18:46.711Z,7.71
2023-02-11T05:21:17.770Z,7.67
2023-02-11T05:23:45.438Z,7.72
2023-02-11T05:26:12.923Z,7.70
2023-02-11T05:28:40.444Z,7.70
2023-02-11T05:31:07.615Z,7.72
2023-02-11T05:33:34.609Z,7.70
2023-02-11T05:36:06.376Z,7.69
2023-02-11T05:38:33.609Z,7.72
2023-02-11T05:41:00.875Z,7.74
2023-02-11T05:43:27.940Z,7.70
2023-02-11T05:45:54.941Z,7.72
2023-02-11T05:48:21.740Z,7.74
2023-02-11T05:50:48.494Z,7.79
2023-02-11T05:53:15.310Z,7.77
2023-02-11T05:55:42.064Z,7.74
2023-02-11T05:58:09.880Z,7.73
2023-02-11T06:00:36.636Z,7.70
2023-02-11T06:03:04.531Z,7.73
2023-02-11T06:05:33.266Z,7.73
2023-02-11T06:08:00.136Z,7.73
2023-02-11T06:10:27.585Z,7.72
2023-02-11T06:12:54.269Z,7.72
2023-02-11T06:15:21.039Z,7.70
2023-02-11T06:17:47.809Z,7.71
2023-02-11T06:20:14.524Z,7.72
2023-02-11T06:22:41.196Z,7.72
2023-02-11T06:25:08.017Z,7.71
2023-02-11T06:27:34.633Z,7.75
2023-02-11T06:30:01.324Z,7.80
2023-02-11T06:32:43.347Z,7.77
2023-02-11T06:35:12.131Z,7.79
2023-02-11T06:37:39.824Z,7.76
2023-02-11T06:40:07.010Z,7.81
2023-02-11T06:42:34.586Z,7.80
2023-02-11T06:45:01.313Z,7.84
2023-02-11T06:47:27.963Z,7.79
2023-02-11T06:49:54.641Z,7.82
2023-02-11T06:52:21.359Z,7.82
2023-02-11T06:54:48.101Z,7.84
2023-02-11T06:57:14.745Z,7.80
2023-02-11T06:59:41.832Z,7.84
2023-02-11T07:02:11.530Z,7.82
2023-02-11T07:04:38.224Z,7.83
2023-02-11T07:07:04.968Z,7.79
2023-02-11T07:09:31.631Z,7.83
2023-02-11T07:11:58.440Z,7.85
2023-02-11T07:14:25.605Z,7.86
2023-02-11T07:16:52.239Z,7.81
2023-02-11T07:19:19.007Z,7.81
2023-02-11T07:21:45.697Z,7.85
2023-02-11T07:24:17.259Z,7.85
2023-02-11T07:26:44.670Z,7.86
2023-02-11T07:29:11.673Z,7.88
2023-02-11T07:31:38.819Z,7.88
2023-02-11T07:34:05.536Z,7.87
2023-02-11T07:36:32.533Z,7.88
2023-02-11T07:39:00.150Z,7.91
2023-02-11T07:41:27.071Z,7.90
2023-02-11T07:43:54.364Z,7.91
2023-02-11T07:46:24.477Z,7.88
2023-02-11T07:48:51.629Z,7.91
2023-02-11T07:51:24.907Z,7.91
2023-02-11T07:53:52.242Z,7.90
2023-02-11T07:56:21.438Z,7.93
2023-02-11T07:58:49.043Z,7.92
2023-02-11T08:01:20.234Z,7.91
2023-02-11T08:03:46.918Z,7.90
2023-02-11T08:06:15.928Z,7.91
2023-02-11T08:08:43.363Z,7.92
2023-02-11T08:11:22.391Z,7.89
2023-02-11T08:13:49.478Z,7.93
2023-02-11T08:16:31.709Z,7.92
2023-02-11T08:19:00.648Z,7.93
2023-02-11T08:21:28.111Z,7.95
2023-02-11T08:23:55.561Z,7.92
2023-02-11T08:26:24.635Z,8.01
2023-02-11T08:28:53.652Z,7.95
2023-02-11T08:31:26.673Z,7.97
2023-02-11T08:33:54.890Z,8.04
2023-02-11T08:36:23.698Z,8.02
2023-02-11T08:38:50.900Z,8.01
2023-02-11T08:41:18.166Z,8.01
2023-02-11T08:43:46.232Z,8.06
2023-02-11T08:46:19.235Z,8.06
2023-02-11T08:48:47.302Z,8.07
2023-02-11T08:51:27.481Z,8.09
2023-02-11T08:53:55.296Z,8.08
2023-02-11T08:56:25.836Z,8.07
2023-02-11T08:58:53.366Z,8.10
2023-02-11T09:01:26.264Z,8.12
2023-02-11T09:03:53.736Z,8.10
2023-02-11T09:06:22.537Z,8.10
2023-02-11T09:08:51.845Z,8.15
2023-02-11T09:11:21.009Z,8.20
2023-02-11T09:13:48.093Z,8.16
2023-02-11T09:16:21.762Z,8.18
2023-02-11T09:18:49.546Z,8.23
2023-02-11T09:21:18.576Z,8.19
2023-02-11T09:23:47.718Z,8.32
2023-02-11T09:26:26.826Z,8.35
2023-02-11T09:28:53.618Z,8.36
2023-02-11T09:31:25.925Z,8.42
2023-02-11T09:33:56.573Z,8.44
2023-02-11T09:36:29.494Z,8.40
2023-02-11T09:38:58.284Z,8.45
2023-02-11T09:41:27.829Z,8.49
2023-02-11T09:43:57.554Z,8.53
2023-02-11T09:46:27.587Z,8.64
2023-02-11T09:48:55.764Z,8.56
2023-02-11T09:51:50.009Z,8.56
2023-02-11T09:54:27.468Z,8.59
2023-02-11T09:56:54.145Z,8.66
2023-02-11T09:59:21.629Z,8.72
2023-02-11T10:01:56.675Z,8.66
2023-02-11T10:05:07.260Z,8.68
2023-02-11T10:07:46.792Z,8.69
2023-02-11T10:10:25.696Z,8.80
2023-02-11T10:13:22.880Z,8.79
2023-02-11T10:16:05.988Z,8.74
2023-02-11T10:18:55.872Z,8.82
2023-02-11T10:21:41.491Z,8.79
2023-02-11T10:24:12.624Z,8.75
2023-02-11T10:26:40.712Z,8.81
2023-02-11T10:29:31.609Z,8.86
2023-02-11T10:32:00.591Z,8.86
2023-02-11T10:34:27.419Z,8.92
2023-02-11T10:36:54.098Z,8.98
2023-02-11T10:39:23.597Z,8.98
2023-02-11T10:41:56.398Z,9.01
2023-02-11T10:44:31.897Z,9.06
2023-02-11T10:47:02.961Z,9.03
2023-02-11T10:49:41.545Z,9.00
2023-02-11T10:52:15.912Z,9.04
2023-02-11T10:54:54.834Z,8.98
2023-02-11T10:57:21.505Z,8.98
2023-02-11T10:59:49.438Z,8.94
2023-02-11T11:02:32.185Z,8.97
2023-02-11T11:05:01.794Z,8.98
2023-02-11T11:07:30.599Z,8.99
2023-02-11T11:10:25.558Z,9.02
2023-02-11T11:12:52.233Z,9.09
2023-02-11T11:15:21.877Z,9.03
2023-02-11T11:17:50.321Z,9.01
2023-02-11T11:20:30.441Z,9.09
2023-02-11T11:23:12.329Z,9.05
2023-02-11T11:25:43.455Z,9.09
2023-02-11T11:28:23.509Z,9.18
2023-02-11T11:30:53.317Z,9.18
2023-02-11T11:33:24.923Z,9.15
2023-02-11T11:36:06.723Z,9.23
2023-02-11T11:38:36.515Z,9.24
2023-02-11T11:41:20.577Z,9.25
2023-02-11T11:43:57.616Z,9.25
2023-02-11T11:46:36.383Z,9.28
2023-02-11T11:49:33.521Z,9.25
2023-02-11T11:52:26.668Z,9.34
2023-02-11T11:55:05.066Z,9.37
2023-02-11T11:57:37.111Z,9.29
2023-02-11T12:00:04.705Z,9.28
2023-02-11T12:02:57.659Z,9.28
2023-02-11T12:05:33.267Z,9.34
2023-02-11T12:08:45.869Z,9.36
2023-02-11T12:11:31.148Z,9.37
2023-02-11T12:14:19.490Z,9.43
2023-02-11T12:17:19.494Z,9.44
2023-02-11T12:19:49.028Z,9.50
2023-02-11T12:22:41.801Z,9.43
2023-02-11T12:26:02.520Z,9.37
2023-02-11T12:29:06.246Z,9.44
2023-02-11T12:31:44.275Z,9.44
2023-02-11T12:34:23.264Z,9.52
2023-02-11T12:37:03.015Z,9.49
2023-02-11T12:39:42.162Z,9.53
2023-02-11T12:42:55.069Z,9.49
2023-02-11T12:45:47.590Z,9.71
2023-02-11T12:48:46.555Z,9.57
2023-02-11T12:51:57.394Z,9.54
2023-02-11T12:54:28.616Z,9.47
2023-02-11T12:57:17.299Z,9.45
2023-02-11T12:59:52.083Z,9.57
2023-02-11T13:02:27.223Z,9.49
2023-02-11T13:04:59.951Z,9.57
2023-02-11T13:07:36.700Z,9.53
2023-02-11T13:10:22.056Z,9.54
2023-02-11T13:13:09.382Z,9.49
2023-02-11T13:15:36.549Z,9.47
2023-02-11T13:18:21.914Z,9.43
2023-02-11T13:20:58.887Z,9.41
2023-02-11T13:23:39.869Z,9.44
2023-02-11T13:26:28.045Z,9.48
2023-02-11T13:29:21.564Z,9.40
2023-02-11T13:32:09.907Z,9.40
2023-02-11T13:34:42.631Z,9.43
2023-02-11T13:37:36.299Z,9.37
2023-02-11T13:40:28.490Z,9.38
2023-02-11T13:43:00.498Z,9.38
2023-02-11T13:45:34.613Z,9.28
2023-02-11T13:48:32.031Z,9.26
2023-02-11T13:51:02.710Z,9.26
2023-02-11T13:53:30.491Z,9.19
2023-02-11T13:56:11.355Z,9.20
2023-02-11T13:58:47.997Z,9.11
2023-02-11T14:01:42.473Z,9.15
2023-02-11T14:04:48.767Z,9.11
2023-02-11T14:07:51.925Z,9.13
2023-02-11T14:10:43.623Z,9.15
2023-02-11T14:13:33.326Z,9.23
2023-02-11T14:16:36.513Z,9.23
2023-02-11T14:19:04.640Z,9.25
2023-02-11T14:21:37.894Z,9.29
2023-02-11T14:24:05.007Z,9.28
2023-02-11T14:26:51.339Z,9.24
2023-02-11T14:29:20.094Z,9.32
2023-02-11T14:31:53.957Z,9.28
2023-02-11T14:34:42.595Z,9.26
2023-02-11T14:37:34.584Z,9.31
2023-02-11T14:40:16.607Z,9.33
2023-02-11T14:42:43.572Z,9.32
2023-02-11T14:45:18.754Z,9.32
2023-02-11T14:47:53.084Z,9.32
2023-02-11T14:50:27.034Z,9.27
2023-02-11T14:52:54.982Z,9.35
2023-02-11T14:55:33.349Z,9.26
2023-02-11T14:58:06.132Z,9.26
2023-02-11T15:00:32.882Z,9.32
2023-02-11T15:02:59.614Z,9.36
2023-02-11T15:05:29.173Z,9.43
2023-02-11T15:08:02.116Z,9.37
2023-02-11T15:10:44.965Z,9.30
2023-02-11T15:13:20.334Z,9.39
2023-02-11T15:15:48.363Z,9.30
2023-02-11T15:18:22.725Z,9.30
2023-02-11T15:20:50.568Z,9.28
2023-02-11T15:23:27.110Z,9.27
2023-02-11T15:25:56.313Z,9.31
2023-02-11T15:28:31.719Z,9.27
2023-02-11T15:31:15.328Z,9.22
2023-02-11T15:33:42.199Z,9.31
2023-02-11T15:36:14.307Z,9.28
2023-02-11T15:38:41.119Z,9.22
2023-02-11T15:41:08.342Z,9.20
2023-02-11T15:43:47.358Z,9.19
2023-02-11T15:46:18.609Z,9.21
2023-02-11T15:48:49.158Z,9.17
2023-02-11T15:51:25.914Z,9.10
2023-02-11T15:54:03.366Z,9.10
2023-02-11T15:56:37.502Z,9.14
2023-02-11T15:59:19.991Z,9.13
2023-02-11T16:01:50.442Z,9.01
2023-02-11T16:04:20.582Z,8.95
2023-02-11T16:06:48.214Z,8.99
2023-02-11T16:09:14.858Z,8.94
2023-02-11T16:11:47.632Z,8.87
2023-02-11T16:14:39.267Z,8.82
2023-02-11T16:17:13.086Z,8.79
2023-02-11T16:19:45.674Z,8.77
2023-02-11T16:22:17.553Z,8.76
2023-02-11T16:24:47.995Z,8.73
2023-02-11T16:27:30.531Z,8.72
2023-02-11T16:29:58.416Z,8.69
2023-02-11T16:32:28.080Z,8.66
2023-02-11T16:35:00.859Z,8.66
2023-02-11T16:37:28.205Z,8.62
2023-02-11T16:39:55.999Z,8.64
2023-02-11T16:42:23.350Z,8.61
2023-02-11T16:44:50.051Z,8.64
2023-02-11T16:47:23.479Z,8.60
2023-02-11T16:49:50.333Z,8.57
2023-02-11T16:52:18.316Z,8.63
2023-02-11T16:54:45.093Z,8.60
2023-02-11T16:57:15.885Z,8.49
2023-02-11T16:59:43.299Z,8.54
2023-02-11T17:02:18.499Z,8.55
2023-02-11T17:04:45.736Z,8.50
2023-02-11T17:07:12.714Z,8.47
2023-02-11T17:09:39.514Z,8.44
2023-02-11T17:12:06.674Z,8.47
2023-02-11T17:14:33.399Z,8.42
2023-02-11T17:17:00.133Z,8.48
2023-02-11T17:19:26.844Z,8.46
2023-02-11T17:21:53.864Z,8.43
2023-02-11T17:24:22.264Z,8.33
2023-02-11T17:26:49.806Z,8.32
2023-02-11T17:29:20.101Z,8.33
2023-02-11T17:31:47.085Z,8.32
2023-02-11T17:34:14.005Z,8.28
2023-02-11T17:36:41.470Z,8.24
2023-02-11T17:39:09.100Z,8.30
2023-02-11T17:41:39.649Z,8.31
2023-02-11T17:44:07.922Z,8.29
2023-02-11T17:46:35.748Z,8.34
2023-02-11T17:49:02.814Z,8.27
2023-02-11T17:51:31.263Z,8.27
2023-02-11T17:54:00.104Z,8.32
2023-02-11T17:56:26.839Z,8.24
2023-02-11T17:58:53.574Z,8.29
2023-02-11T18:01:20.652Z,8.25
2023-02-11T18:03:47.339Z,8.32
2023-02-11T18:06:14.287Z,8.31
2023-02-11T18:08:43.074Z,8.35
2023-02-11T18:11:12.143Z,8.34
2023-02-11T18:13:38.952Z,8.30
2023-02-11T18:16:06.092Z,8.28
2023-02-11T18:18:32.924Z,8.23
2023-02-11T18:21:01.834Z,8.25
2023-02-11T18:23:28.764Z,8.30
2023-02-11T18:25:56.712Z,8.26
2023-02-11T18:28:23.420Z,8.28
2023-02-11T18:30:58.691Z,8.24
2023-02-11T18:33:26.456Z,8.30
2023-02-11T18:35:54.271Z,8.22
2023-02-11T18:38:22.256Z,8.26
2023-02-11T18:40:50.564Z,8.30
2023-02-11T18:43:18.136Z,8.28
2023-02-11T18:45:46.766Z,8.31
2023-02-11T18:48:13.925Z,8.30
2023-02-11T18:50:45.140Z,8.33
2023-02-11T18:53:13.806Z,8.29
2023-02-11T18:55:42.176Z,8.29
2023-02-11T18:58:09.352Z,8.26
2023-02-11T19:00:38.874Z,8.24
2023-02-11T19:03:05.567Z,8.23
2023-02-11T19:05:33.521Z,8.17
2023-02-11T19:08:00.715Z,8.20
2023-02-11T19:10:28.543Z,8.17
2023-02-11T19:12:58.933Z,8.18
2023-02-11T19:15:26.222Z,8.18
2023-02-11T19:17:53.260Z,8.18
2023-02-11T19:20:20.317Z,8.17
2023-02-11T19:22:46.988Z,8.13
2023-02-11T19:25:13.982Z,8.06
2023-02-11T19:27:43.707Z,8.15
2023-02-11T19:30:11.025Z,8.10
2023-02-11T19:32:38.849Z,8.11
2023-02-11T19:35:06.434Z,8.08
2023-02-11T19:37:33.248Z,8.09
2023-02-11T19:39:59.927Z,8.07
2023-02-11T19:42:27.672Z,8.14
2023-02-11T19:44:54.459Z,8.04
2023-02-11T19:47:27.913Z,8.00
2023-02-11T19:49:55.240Z,8.05
2023-02-11T19:52:21.954Z,8.10
2023-02-11T19:54:48.631Z,7.94
2023-02-11T19:57:15.259Z,7.96
2023-02-11T19:59:41.961Z,7.88
2023-02-11T20:02:11.319Z,7.93
2023-02-11T20:04:38.031Z,7.88
2023-02-11T20:07:04.743Z,7.90
2023-02-11T20:09:31.840Z,7.87
2023-02-11T20:11:58.915Z,7.87
2023-02-11T20:14:27.833Z,7.87
2023-02-11T20:16:54.749Z,7.87
2023-02-11T20:19:22.382Z,7.89
2023-02-11T20:21:52.354Z,7.86
2023-02-11T20:24:19.760Z,7.86
2023-02-11T20:26:48.427Z,7.88
2023-02-11T20:29:17.310Z,7.95
2023-02-11T20:31:44.576Z,7.92
2023-02-11T20:34:12.493Z,7.82
2023-02-11T20:36:40.550Z,7.87
2023-02-11T20:39:07.920Z,7.86
2023-02-11T20:41:38.716Z,7.84
2023-02-11T20:44:08.245Z,7.87
2023-02-11T20:46:37.137Z,7.91
2023-02-11T20:49:04.174Z,7.84
2023-02-11T20:51:33.354Z,7.86
2023-02-11T20:54:00.887Z,7.86
2023-02-11T20:56:30.778Z,7.87
2023-02-11T20:58:59.311Z,7.85
2023-02-11T21:01:29.638Z,7.84
2023-02-11T21:03:59.002Z,7.84
2023-02-11T21:06:27.774Z,7.95
2023-02-11T21:08:54.409Z,7.84
2023-02-11T21:11:21.179Z,7.86
2023-02-11T21:13:48.848Z,7.83
2023-02-11T21:16:20.292Z,7.83
2023-02-11T21:18:47.666Z,7.83
2023-02-11T21:21:15.123Z,7.83
2023-02-11T21:23:41.825Z,7.83
2023-02-11T21:26:09.256Z,7.91
2023-02-11T21:28:38.510Z,7.90
2023-02-11T21:31:07.251Z,7.87
2023-02-11T21:33:34.710Z,7.87
2023-02-11T21:36:03.944Z,7.86
2023-02-11T21:38:34.770Z,7.87
2023-02-11T21:41:05.947Z,7.86
2023-02-11T21:43:33.480Z,7.88
2023-02-11T21:46:00.499Z,7.86
2023-02-11T21:48:27.257Z,7.89
2023-02-11T21:50:54.007Z,7.83
2023-02-11T21:53:20.756Z,7.82
2023-02-11T21:55:47.525Z,7.83
2023-02-11T21:58:14.597Z,7.81
2023-02-11T22:00:41.631Z,7.73
2023-02-11T22:03:08.365Z,7.77
2023-02-11T22:05:35.098Z,7.75
2023-02-11T22:08:01.726Z,7.70
2023-02-11T22:10:28.427Z,7.70
2023-02-11T22:12:55.103Z,7.71
2023-02-11T22:15:21.735Z,7.67
2023-02-11T22:17:48.533Z,7.73
2023-02-11T22:20:16.561Z,7.68
2023-02-11T22:22:43.209Z,7.70
2023-02-11T22:25:09.866Z,7.64
2023-02-11T22:27:36.490Z,7.65
2023-02-11T22:30:03.938Z,7.65
2023-02-11T22:32:30.697Z,7.64
2023-02-11T22:34:57.445Z,7.62
2023-02-11T22:37:24.237Z,7.66
2023-02-11T22:39:51.005Z,7.63
2023-02-11T22:42:17.759Z,7.60
2023-02-11T22:44:44.578Z,7.54
2023-02-11T22:47:11.287Z,7.58
2023-02-11T22:49:39.567Z,7.58
2023-02-11T22:52:06.292Z,7.54
2023-02-11T22:54:32.987Z,7.57
2023-02-11T22:56:59.650Z,7.50
2023-02-11T22:59:26.337Z,7.54
2023-02-11T23:01:53.241Z,7.57
2023-02-11T23:04:20.897Z,7.49
2023-02-11T23:06:47.793Z,7.62
2023-02-11T23:09:14.714Z,7.53
2023-02-11T23:11:42.072Z,7.61
2023-02-11T23:14:11.967Z,7.67
2023-02-11T23:16:39.145Z,7.59
2023-02-11T23:19:08.295Z,7.60
2023-02-11T23:21:37.537Z,7.48
2023-02-11T23:24:08.006Z,7.52
2023-02-11T23:26:37.136Z,7.49
2023-02-11T23:29:04.013Z,7.48
2023-02-11T23:31:37.795Z,7.58
2023-02-11T23:34:05.112Z,7.54
2023-02-11T23:36:31.860Z,7.48
2023-02-11T23:38:58.538Z,7.59
2023-02-11T23:41:25.402Z,7.52
2023-02-11T23:43:54.415Z,7.56
2023-02-11T23:46:23.088Z,7.51
2023-02-11T23:48:50.700Z,7.50
2023-02-11T23:51:18.151Z,7.50
2023-02-11T23:53:49.092Z,7.57
2023-02-11T23:56:21.485Z,7.53
2023-02-11T23:59:06.087Z,7.59
